• Join FlightAware (Why Join?)
  • Login
  • US Flag 
06:11PM EDT


 

Airport Tracker/Info


-or-


 

Live Flight TrackerFlight Track Log ✈ CDG4723 ✈ 09-Apr-2014 ✈ ZUCK / CKG - ZSWY / WUS

Flight Track Log - Related Links

Times and Time Zones

All times are in EDT time to prevent confusion due to time zone crossing. See the CDG4723 flight status page for this flight to view local times or setup timezone preferences in your user account.

Time Position Orientation Groundspeed Altitude Reporting Facility
EDT Latitude Longitude Course Direction KTS MPH feet Rate Location/Type
07:11PM 29.6301 107.3015 99° East  Level Estimated
07:12PM 29.6150 107.4115 99° East  Level Estimated
07:13PM 29.5997 107.5214 99° East  Level Estimated
07:14PM 29.5856 107.6218 99° East  Level Estimated
07:15PM 29.5716 107.7221 99° East  Level Estimated
07:16PM 29.5574 107.8224 99° East  Level Estimated
07:17PM 29.5431 107.9227 99° East  Level Estimated
07:18PM 29.5288 108.0229 99° East  Level Estimated
07:19PM 29.5144 108.1231 99° East  Level Estimated
07:20PM 29.4999 108.2233 99° East  Level Estimated
07:21PM 29.4853 108.3234 99° East  Level Estimated
07:22PM 29.4707 108.4236 100° East  Level Estimated
07:23PM 29.4560 108.5237 100° East  Level Estimated
07:24PM 29.4412 108.6237 100° East  Level Estimated
07:25PM 29.4264 108.7238 100° East  Level Estimated
07:26PM 29.4114 108.8238 100° East  Level Estimated
07:27PM 29.3964 108.9238 100° East  Level Estimated
07:28PM 29.3813 109.0237 100° East  Level Estimated
07:29PM 29.3662 109.1236 100° East  Level Estimated
07:30PM 29.3510 109.2235 100° East  Level Estimated
07:31PM 29.3357 109.3234 100° East  Level Estimated
07:32PM 29.3203 109.4232 100° East  Level Estimated
07:33PM 29.3048 109.5230 100° East  Level Estimated
07:34PM 29.2893 109.6227 100° East  Level Estimated
07:35PM 29.2737 109.7225 100° East  Level Estimated
07:36PM 29.2580 109.8222 100° East  Level Estimated
07:37PM 29.2423 109.9219 100° East  Level Estimated
07:38PM 29.2265 110.0215 100° East  Level Estimated
07:39PM 29.2106 110.1211 100° East  Level Estimated
07:40PM 29.1946 110.2207 100° East  Level Estimated
07:41PM 29.1786 110.3203 100° East  Level Estimated
07:42PM 29.1624 110.4198 100° East  Level Estimated
07:43PM 29.1462 110.5193 101° East  Level Estimated
07:44PM 29.1300 110.6187 101° East  Level Estimated
07:45PM 29.1136 110.7181 101° East  Level Estimated
07:46PM 29.0972 110.8175 101° East  Level Estimated
07:47PM 29.0808 110.9169 101° East  Level Estimated
07:48PM 29.0642 111.0162 101° East  Level Estimated
07:49PM 29.0476 111.1155 101° East  Level Estimated
07:50PM 29.0309 111.2148 101° East  Level Estimated
07:51PM 29.0141 111.3140 101° East  Level Estimated
07:52PM 28.9972 111.4132 101° East  Level Estimated
07:53PM 28.9803 111.5124 101° East  Level Estimated
07:54PM 28.9633 111.6115 101° East  Level Estimated
07:55PM 28.9463 111.7106 101° East  Level Estimated
07:56PM 28.9291 111.8097 101° East  Level Estimated
07:57PM 28.9119 111.9088 101° East  Level Estimated
07:58PM 28.8946 112.0078 101° East  Level Estimated
07:59PM 28.8773 112.1067 101° East  Level Estimated
08:00PM 28.8598 112.2057 101° East  Level Estimated
08:01PM 28.8423 112.3046 101° East  Level Estimated
08:02PM 28.8248 112.4035 101° East  Level Estimated
08:03PM 28.8071 112.5023 101° East  Level Estimated
08:04PM 28.7894 112.6011 102° East  Level Estimated
08:05PM 28.7716 112.6999 102° East  Level Estimated
08:06PM 28.7537 112.7986 102° East  Level Estimated
08:07PM 28.7358 112.8973 102° East  Level Estimated
08:08PM 28.7178 112.9960 102° East  Level Estimated
08:09PM 28.6997 113.0946 102° East  Level Estimated
08:10PM 28.6816 113.1932 102° East  Level Estimated
08:11PM 28.6634 113.2918 102° East  Level Estimated
08:12PM 28.6451 113.3904 102° East  Level Estimated
08:13PM 28.6267 113.4889 102° East  Level Estimated
08:14PM 28.6083 113.5873 102° East  Level Estimated
08:15PM 28.5898 113.6857 102° East  Level Estimated
08:16PM 28.5712 113.7841 102° East  Level Estimated
08:17PM 28.5526 113.8825 102° East  Level Estimated
08:18PM 28.5338 113.9808 102° East  Level Estimated
08:19PM 28.5151 114.0791 102° East  Level Estimated
08:20PM 28.4962 114.1774 102° East  Level Estimated
08:21PM 28.4773 114.2756 102° East  Level Estimated
08:22PM 28.4583 114.3738 102° East  Level Estimated
08:23PM 28.4392 114.4719 102° East  Level Estimated
08:24PM 28.4201 114.5701 102° East  Level Estimated
08:25PM 28.4009 114.6681 103° East  Level Estimated
08:26PM 28.3816 114.7662 103° East  Level Estimated
08:27PM 28.3622 114.8642 103° East  Level Estimated
08:28PM 28.3428 114.9622 103° East  Level Estimated
08:29PM 28.3233 115.0601 103° East  Level Estimated
08:30PM 28.3037 115.1580 103° East  Level Estimated
08:31PM 28.2841 115.2559 103° East  Level Estimated
08:32PM 28.2644 115.3537 103° East  Level Estimated
08:33PM 28.2446 115.4515 103° East  Level Estimated
08:34PM 28.2248 115.5492 103° East  Level Estimated
08:35PM 28.2049 115.6470 103° East  Level Estimated
08:36PM 28.1849 115.7446 103° East  Level Estimated
08:37PM 28.1649 115.8423 103° East  Level Estimated
08:38PM 28.1448 115.9399 103° East  Level Estimated
08:39PM 28.1246 116.0375 103° East  Level Estimated
08:40PM 28.1043 116.1350 103° East  Level Estimated
08:41PM 28.0840 116.2325 103° East  Level Estimated
08:42PM 28.0636 116.3300 103° East  Level Estimated
08:43PM 28.0431 116.4274 103° East  Level Estimated
08:44PM 28.0226 116.5248 103° East  Level Estimated
08:45PM 28.0020 116.6221 103° East  Level Estimated
08:46PM 27.9813 116.7195 104° East  Level Estimated
08:47PM 27.9606 116.8167 104° East  Level Estimated
08:48PM 27.9398 116.9140 104° East  Level Estimated
08:49PM 27.9189 117.0112 104° East  Level Estimated
08:50PM 27.8980 117.1083 104° East  Level Estimated
08:51PM 27.8770 117.2055 104° East  Level Estimated
08:52PM 27.8559 117.3026 104° East  Level Estimated
08:53PM 27.8348 117.3996 104° East  Level Estimated
08:54PM 27.8136 117.4966 104° East  Level Estimated
08:55PM 27.7923 117.5936 104° East  Level Estimated
08:56PM 27.7709 117.6905 104° East  Level Estimated
08:57PM 27.7495 117.7874 104° East  Level Estimated
08:58PM 27.7280 117.8843 104° East  Level Estimated
08:59PM 27.7065 117.9811 104° East  Level Estimated
09:00PM 27.7019 118.0014 104° East  Level Estimated
09:01PM 27.7019 118.0014 North  Level Estimated
09:02PM 27.7019 118.0014 North  Level Estimated
09:03PM 27.7019 118.0014 North  Level Estimated
09:04PM 27.7019 118.0014 North  Level Estimated
09:05PM 27.7019 118.0014 North  Level Estimated
09:06PM 27.7019 118.0014 North  Level Estimated
09:07PM 27.7019 118.0014 North  Level Estimated
09:08PM 27.7019 118.0014 North  Level Estimated
09:09PM 27.7019 118.0014 North  Level Estimated
09:10PM 27.7019 118.0014 North  Level Estimated
09:11PM 27.7019 118.0014 North  Level Estimated